createdAt,value
2022-11-05T00:02:00.947Z,12.68
2022-11-05T00:04:46.488Z,11.32
2022-11-05T00:07:50.367Z,11.20
2022-11-05T00:10:28.366Z,9.90
2022-11-05T00:13:16.727Z,8.93
2022-11-05T00:16:02.618Z,8.48
2022-11-05T00:18:29.495Z,10.07
2022-11-05T00:20:57.210Z,13.45
2022-11-05T00:23:42.934Z,9.77
2022-11-05T00:26:11.819Z,9.77
2022-11-05T00:28:42.241Z,8.00
2022-11-05T00:31:13.764Z,9.55
2022-11-05T00:33:43.628Z,8.65
2022-11-05T00:36:12.199Z,8.30
2022-11-05T00:38:38.961Z,7.78
2022-11-05T00:41:05.817Z,7.18
2022-11-05T00:43:51.010Z,8.25
2022-11-05T00:46:17.649Z,7.65
2022-11-05T00:49:02.810Z,6.45
2022-11-05T00:51:29.466Z,9.00
2022-11-05T00:53:56.142Z,7.03
2022-11-05T00:56:22.853Z,8.02
2022-11-05T00:58:49.537Z,6.72
2022-11-05T01:01:16.260Z,8.63
2022-11-05T01:03:46.215Z,6.85
2022-11-05T01:06:17.579Z,8.98
2022-11-05T01:08:45.887Z,6.68
2022-11-05T01:11:33.798Z,6.55
2022-11-05T01:14:01.586Z,7.25
2022-11-05T01:16:28.341Z,7.75
2022-11-05T01:18:55.054Z,5.78
2022-11-05T01:21:21.680Z,5.60
2022-11-05T01:23:48.877Z,9.10
2022-11-05T01:26:15.545Z,8.32
2022-11-05T01:28:42.323Z,5.82
2022-11-05T01:31:08.993Z,2.83
2022-11-05T01:33:35.676Z,3.92
2022-11-05T01:36:04.481Z,3.28
2022-11-05T01:38:31.089Z,2.60
2022-11-05T01:40:57.718Z,3.20
2022-11-05T01:43:24.388Z,2.60
2022-11-05T01:45:55.230Z,4.28
2022-11-05T01:48:28.150Z,2.95
2022-11-05T01:51:04.976Z,4.15
2022-11-05T01:53:46.939Z,3.95
2022-11-05T01:56:29.978Z,3.08
2022-11-05T01:59:06.277Z,2.13
2022-11-05T02:01:33.613Z,4.40
2022-11-05T02:04:04.704Z,3.15
2022-11-05T02:06:34.883Z,3.42
2022-11-05T02:09:12.951Z,2.72
2022-11-05T02:11:39.592Z,2.70
2022-11-05T02:14:06.538Z,2.70
2022-11-05T02:16:48.457Z,1.92
2022-11-05T02:19:40.207Z,3.60
2022-11-05T02:22:25.690Z,3.15
2022-11-05T02:25:29.916Z,2.50
2022-11-05T02:28:34.119Z,2.38
2022-11-05T02:31:08.945Z,2.40
2022-11-05T02:33:35.573Z,2.22
2022-11-05T02:36:21.025Z,2.00
2022-11-05T02:39:06.178Z,2.35
2022-11-05T02:41:38.596Z,2.33
2022-11-05T02:44:12.861Z,3.08
2022-11-05T02:46:56.353Z,3.13
2022-11-05T02:49:46.127Z,2.65
2022-11-05T02:52:23.493Z,3.28
2022-11-05T02:55:08.788Z,2.10
2022-11-05T02:57:36.796Z,2.33
2022-11-05T03:00:28.823Z,3.42
2022-11-05T03:02:55.570Z,3.53
2022-11-05T03:05:32.933Z,6.22
2022-11-05T03:08:11.550Z,2.85
2022-11-05T03:10:52.959Z,3.13
2022-11-05T03:13:29.522Z,2.30
2022-11-05T03:16:17.313Z,2.75
2022-11-05T03:18:58.483Z,3.70
2022-11-05T03:21:56.381Z,3.90
2022-11-05T03:24:31.607Z,2.53
2022-11-05T03:27:12.893Z,4.50
2022-11-05T03:29:45.029Z,2.63
2022-11-05T03:32:14.617Z,3.10
2022-11-05T03:34:51.985Z,2.85
2022-11-05T03:37:22.514Z,5.25
2022-11-05T03:39:52.786Z,3.58
2022-11-05T03:42:23.797Z,2.90
2022-11-05T03:44:55.126Z,3.20
2022-11-05T03:47:25.799Z,2.63
2022-11-05T03:49:58.643Z,3.55
2022-11-05T03:52:29.955Z,3.80
2022-11-05T03:54:56.823Z,3.75
2022-11-05T03:57:31.426Z,2.80
2022-11-05T03:59:58.080Z,4.38
2022-11-05T04:02:27.013Z,4.78
2022-11-05T04:04:54.631Z,3.42
2022-11-05T04:07:40.007Z,2.88
2022-11-05T04:10:25.333Z,2.70
2022-11-05T04:13:10.869Z,2.88
2022-11-05T04:15:56.510Z,2.47
2022-11-05T04:18:23.271Z,2.38
2022-11-05T04:21:08.617Z,2.35
2022-11-05T04:23:53.890Z,2.88
2022-11-05T04:26:23.496Z,2.03
2022-11-05T04:29:09.358Z,4.93
2022-11-05T04:31:36.069Z,3.20
2022-11-05T04:34:02.897Z,3.00
2022-11-05T04:36:29.771Z,4.22
2022-11-05T04:38:56.499Z,4.25
2022-11-05T04:41:23.336Z,3.30
2022-11-05T04:43:50.023Z,4.38
2022-11-05T04:46:16.668Z,3.03
2022-11-05T04:48:43.407Z,2.85
2022-11-05T04:51:10.049Z,4.13
2022-11-05T04:53:36.722Z,4.68
2022-11-05T04:56:18.325Z,5.00
2022-11-05T04:58:45.248Z,4.60
2022-11-05T05:01:23.326Z,5.32
2022-11-05T05:03:51.524Z,6.60
2022-11-05T05:06:19.045Z,5.20
2022-11-05T05:08:49.802Z,4.93
2022-11-05T05:11:18.712Z,5.28
2022-11-05T05:13:45.863Z,6.30
2022-11-05T05:16:30.581Z,7.07
2022-11-05T05:18:57.307Z,5.38
2022-11-05T05:21:39.284Z,6.80
2022-11-05T05:24:15.962Z,7.50
2022-11-05T05:26:45.810Z,7.38
2022-11-05T05:29:12.912Z,7.35
2022-11-05T05:31:40.119Z,6.95
2022-11-05T05:34:08.378Z,6.05
2022-11-05T05:36:35.024Z,6.53
2022-11-05T05:39:01.947Z,6.63
2022-11-05T05:41:28.587Z,7.03
2022-11-05T05:43:55.298Z,6.25
2022-11-05T05:46:21.989Z,6.55
2022-11-05T05:48:50.919Z,5.82
2022-11-05T05:51:18.673Z,6.65
2022-11-05T05:53:45.484Z,6.22
2022-11-05T05:56:15.008Z,5.93
2022-11-05T05:58:42.209Z,7.13
2022-11-05T06:01:18.348Z,7.15
2022-11-05T06:03:46.388Z,6.38
2022-11-05T06:06:14.965Z,10.57
2022-11-05T06:08:42.776Z,5.22
2022-11-05T06:11:09.904Z,8.00
2022-11-05T06:13:37.481Z,7.68
2022-11-05T06:16:06.781Z,6.75
2022-11-05T06:18:34.367Z,6.15
2022-11-05T06:21:06.802Z,6.13
2022-11-05T06:23:35.380Z,7.13
2022-11-05T06:26:03.981Z,9.20
2022-11-05T06:28:31.152Z,7.00
2022-11-05T06:30:58.134Z,7.90
2022-11-05T06:33:25.573Z,6.32
2022-11-05T06:35:53.254Z,8.48
2022-11-05T06:38:20.452Z,7.55
2022-11-05T06:40:47.116Z,6.93
2022-11-05T06:43:14.148Z,6.82
2022-11-05T06:45:41.110Z,5.93
2022-11-05T06:48:07.800Z,6.05
2022-11-05T06:50:34.614Z,6.88
2022-11-05T06:53:04.594Z,6.82
2022-11-05T06:55:32.036Z,5.82
2022-11-05T06:57:59.026Z,5.25
2022-11-05T07:00:26.026Z,4.97
2022-11-05T07:02:52.845Z,3.88
2022-11-05T07:05:19.495Z,3.67
2022-11-05T07:07:46.115Z,2.95
2022-11-05T07:10:16.141Z,2.95
2022-11-05T07:12:43.430Z,2.88
2022-11-05T07:15:12.110Z,1.70
2022-11-05T07:17:39.831Z,2.15
2022-11-05T07:20:08.259Z,2.20
2022-11-05T07:22:35.840Z,3.42
2022-11-05T07:25:02.993Z,2.00
2022-11-05T07:27:29.633Z,2.35
2022-11-05T07:29:56.475Z,0.90
2022-11-05T07:32:23.326Z,1.27
2022-11-05T07:34:50.015Z,1.05
2022-11-05T07:37:16.871Z,1.15
2022-11-05T07:39:43.611Z,1.63
2022-11-05T07:42:13.498Z,1.67
2022-11-05T07:44:40.586Z,1.42
2022-11-05T07:47:07.588Z,1.23
2022-11-05T07:49:34.227Z,1.83
2022-11-05T07:52:01.019Z,1.77
2022-11-05T07:54:27.818Z,1.15
2022-11-05T07:56:54.520Z,1.25
2022-11-05T07:59:21.242Z,3.88
2022-11-05T08:01:48.072Z,2.70
2022-11-05T08:04:14.911Z,3.70
2022-11-05T08:06:41.543Z,3.42
2022-11-05T08:09:09.206Z,1.75
2022-11-05T08:11:35.960Z,1.90
2022-11-05T08:14:02.674Z,2.80
2022-11-05T08:16:29.374Z,1.70
2022-11-05T08:18:56.093Z,2.03
2022-11-05T08:21:22.728Z,2.72
2022-11-05T08:23:49.424Z,2.35
2022-11-05T08:26:16.105Z,3.30
2022-11-05T08:28:42.778Z,3.63
2022-11-05T08:31:09.411Z,3.67
2022-11-05T08:33:36.117Z,5.80
2022-11-05T08:36:04.358Z,4.00
2022-11-05T08:38:31.059Z,6.10
2022-11-05T08:40:58.578Z,5.40
2022-11-05T08:43:25.855Z,6.28
2022-11-05T08:45:52.738Z,6.32
2022-11-05T08:48:19.501Z,6.97
2022-11-05T08:50:47.867Z,9.25
2022-11-05T08:53:15.503Z,7.00
2022-11-05T08:55:43.989Z,8.38
2022-11-05T08:58:12.832Z,10.30
2022-11-05T09:00:40.195Z,9.55
2022-11-05T09:03:09.189Z,12.50
2022-11-05T09:05:40.436Z,9.80
2022-11-05T09:08:09.973Z,13.75
2022-11-05T09:10:37.160Z,10.23
2022-11-05T09:13:04.670Z,12.20
2022-11-05T09:15:31.486Z,13.52
2022-11-05T09:17:58.162Z,11.00
2022-11-05T09:20:25.387Z,14.13
2022-11-05T09:22:52.100Z,14.05
2022-11-05T09:25:18.747Z,14.23
2022-11-05T09:27:45.543Z,14.20
2022-11-05T09:30:13.950Z,14.23
2022-11-05T09:32:41.379Z,14.10
2022-11-05T09:35:08.838Z,13.45
2022-11-05T09:37:38.706Z,16.83
2022-11-05T09:40:06.733Z,15.13
2022-11-05T09:42:39.740Z,17.48
2022-11-05T09:45:20.931Z,18.65
2022-11-05T09:47:51.491Z,16.15
2022-11-05T09:50:38.543Z,13.93
2022-11-05T09:53:05.438Z,15.48
2022-11-05T09:55:41.988Z,14.45
2022-11-05T09:58:24.534Z,15.27
2022-11-05T10:00:55.221Z,13.18
2022-11-05T10:03:24.744Z,11.50
2022-11-05T10:05:53.786Z,12.00
2022-11-05T10:08:23.749Z,11.25
2022-11-05T10:10:56.439Z,13.32
2022-11-05T10:13:42.390Z,17.67
2022-11-05T10:16:30.947Z,13.00
2022-11-05T10:19:06.164Z,13.38
2022-11-05T10:22:04.179Z,15.13
2022-11-05T10:24:21.427Z,13.05
2022-11-05T10:26:51.463Z,13.27
2022-11-05T10:29:30.323Z,13.18
2022-11-05T10:31:58.691Z,9.73
2022-11-05T10:34:30.907Z,12.45
2022-11-05T10:36:57.904Z,11.88
2022-11-05T10:39:27.938Z,11.73
2022-11-05T10:42:13.513Z,11.60
2022-11-05T10:44:45.237Z,12.95
2022-11-05T10:47:31.843Z,14.85
2022-11-05T10:50:01.167Z,12.77
2022-11-05T10:52:52.573Z,13.20
2022-11-05T10:55:23.643Z,12.25
2022-11-05T10:57:50.604Z,13.43
2022-11-05T11:00:17.194Z,12.23
2022-11-05T11:02:50.322Z,10.10
2022-11-05T11:05:32.830Z,9.93
2022-11-05T11:10:48.861Z,10.93
2022-11-05T11:13:21.235Z,6.22
2022-11-05T11:15:50.942Z,5.15
2022-11-05T11:18:42.008Z,4.28
2022-11-05T11:21:23.085Z,3.70
2022-11-05T11:23:55.846Z,4.32
2022-11-05T11:26:24.669Z,3.85
2022-11-05T11:28:59.413Z,3.80
2022-11-05T11:31:29.276Z,5.13
2022-11-05T11:34:19.029Z,5.40
2022-11-05T11:36:48.610Z,6.80
2022-11-05T11:39:22.141Z,5.50
2022-11-05T11:41:55.430Z,5.75
2022-11-05T11:44:27.383Z,6.40
2022-11-05T11:47:04.963Z,5.55
2022-11-05T11:49:58.225Z,9.02
2022-11-05T11:52:31.371Z,8.75
2022-11-05T11:55:13.334Z,9.25
2022-11-05T11:57:50.607Z,7.72
2022-11-05T12:00:18.598Z,7.28
2022-11-05T12:03:01.913Z,7.18
2022-11-05T12:05:39.012Z,6.82
2022-11-05T12:08:24.118Z,6.53
2022-11-05T12:11:04.445Z,6.20
2022-11-05T12:13:56.662Z,7.53
2022-11-05T12:16:42.014Z,7.43
2022-11-05T12:19:11.637Z,10.13
2022-11-05T12:22:00.438Z,7.68
2022-11-05T12:24:45.883Z,7.57
2022-11-05T12:27:40.342Z,7.75
2022-11-05T12:30:21.810Z,6.68
2022-11-05T12:32:54.782Z,5.45
2022-11-05T12:35:21.431Z,7.05
2022-11-05T12:38:18.507Z,7.32
2022-11-05T12:40:56.012Z,7.82
2022-11-05T12:43:41.402Z,7.78
2022-11-05T12:46:11.096Z,6.00
2022-11-05T12:48:47.091Z,7.47
2022-11-05T12:51:38.837Z,7.75
2022-11-05T12:54:31.475Z,9.02
2022-11-05T12:59:33.580Z,7.32
2022-11-05T13:02:38.952Z,6.03
2022-11-05T13:05:14.948Z,5.65
2022-11-05T13:08:04.864Z,8.48
2022-11-05T13:10:36.912Z,7.18
2022-11-05T13:13:16.442Z,6.00
2022-11-05T13:15:50.773Z,6.30
2022-11-05T13:18:24.156Z,5.00
2022-11-05T13:20:53.744Z,5.22
2022-11-05T13:23:31.809Z,4.35
2022-11-05T13:26:19.526Z,5.88
2022-11-05T13:28:49.452Z,6.75
2022-11-05T13:31:21.631Z,6.95
2022-11-05T13:33:51.242Z,4.88
2022-11-05T13:36:49.515Z,5.63
2022-11-05T13:39:41.801Z,7.18
2022-11-05T13:42:36.633Z,6.82
2022-11-05T13:45:29.634Z,7.15
2022-11-05T13:48:05.624Z,8.77
2022-11-05T13:50:53.857Z,8.50
2022-11-05T13:53:50.870Z,9.68
2022-11-05T13:56:21.977Z,9.65
2022-11-05T13:59:26.882Z,10.27
2022-11-05T14:02:29.170Z,10.50
2022-11-05T14:05:01.398Z,9.10
2022-11-05T14:07:47.675Z,9.40
2022-11-05T14:10:26.363Z,9.57
2022-11-05T14:12:55.728Z,11.23
2022-11-05T14:15:26.493Z,11.05
2022-11-05T14:17:56.490Z,10.48
2022-11-05T14:20:46.466Z,10.02
2022-11-05T14:23:25.501Z,12.02
2022-11-05T14:26:13.073Z,12.02
2022-11-05T14:28:49.122Z,12.75
2022-11-05T14:31:18.830Z,10.02
2022-11-05T14:34:01.149Z,9.85
2022-11-05T14:36:39.240Z,11.13
2022-11-05T14:39:14.825Z,9.07
2022-11-05T14:42:02.925Z,12.68
2022-11-05T14:44:33.234Z,11.43
2022-11-05T14:47:04.933Z,11.32
2022-11-05T14:49:49.260Z,12.55
2022-11-05T14:52:18.761Z,12.32
2022-11-05T14:54:50.705Z,10.98
2022-11-05T14:57:42.366Z,11.65
2022-11-05T15:00:40.491Z,10.05
2022-11-05T15:03:46.259Z,10.57
2022-11-05T15:06:32.075Z,12.70
2022-11-05T15:09:26.824Z,12.18
2022-11-05T15:11:56.556Z,11.52
2022-11-05T15:14:34.810Z,12.68
2022-11-05T15:17:22.545Z,11.50
2022-11-05T15:19:51.239Z,13.25
2022-11-05T15:22:34.564Z,12.07
2022-11-05T15:25:05.667Z,13.90
2022-11-05T15:27:46.500Z,14.90
2022-11-05T15:30:17.297Z,10.75
2022-11-05T15:32:44.180Z,14.35
2022-11-05T15:35:29.744Z,11.35
2022-11-05T15:38:02.061Z,13.30
2022-11-05T15:40:33.511Z,13.50
2022-11-05T15:43:21.726Z,16.02
2022-11-05T15:46:03.997Z,11.65
2022-11-05T15:48:31.797Z,17.70
2022-11-05T15:50:59.062Z,13.80
2022-11-05T15:54:16.074Z,13.55
2022-11-05T15:56:50.293Z,14.07
2022-11-05T15:59:20.481Z,14.13
2022-11-05T16:01:51.877Z,15.05
2022-11-05T16:04:27.923Z,15.17
2022-11-05T16:07:06.588Z,18.67
2022-11-05T16:09:36.133Z,17.67
2022-11-05T16:12:18.024Z,15.95
2022-11-05T16:14:56.628Z,20.40
2022-11-05T16:17:25.638Z,16.45
2022-11-05T16:19:53.179Z,16.05
2022-11-05T16:22:20.729Z,17.15
2022-11-05T16:24:48.042Z,16.80
2022-11-05T16:27:20.878Z,15.05
2022-11-05T16:29:49.144Z,16.92
2022-11-05T16:32:31.728Z,15.80
2022-11-05T16:35:06.740Z,16.05
2022-11-05T16:37:41.724Z,17.40
2022-11-05T16:40:24.283Z,14.57
2022-11-05T16:45:21.955Z,15.98
2022-11-05T16:47:49.026Z,16.90
2022-11-05T16:50:17.425Z,16.70
2022-11-05T16:52:46.009Z,16.10
2022-11-05T16:55:14.789Z,16.98
2022-11-05T16:57:43.481Z,15.20
2022-11-05T17:00:16.620Z,18.45
2022-11-05T17:02:44.105Z,15.70
2022-11-05T17:05:26.285Z,13.20
2022-11-05T17:07:53.712Z,15.63
2022-11-05T17:10:21.843Z,14.82
2022-11-05T17:12:49.239Z,14.98
2022-11-05T17:15:36.172Z,17.08
2022-11-05T17:18:04.822Z,16.77
2022-11-05T17:20:43.254Z,21.20
2022-11-05T17:23:12.286Z,16.33
2022-11-05T17:25:40.720Z,15.98
2022-11-05T17:28:07.757Z,21.55
2022-11-05T17:30:35.079Z,20.83
2022-11-05T17:33:02.070Z,19.58
2022-11-05T17:35:28.974Z,22.88
2022-11-05T17:37:55.705Z,22.73
2022-11-05T17:40:23.675Z,19.45
2022-11-05T17:42:51.540Z,17.45
2022-11-05T17:45:18.714Z,17.05
2022-11-05T17:47:45.399Z,19.58
2022-11-05T17:50:14.783Z,20.30
2022-11-05T17:52:41.468Z,20.55
2022-11-05T17:55:16.600Z,22.15
2022-11-05T17:57:47.357Z,18.77
2022-11-05T18:00:22.163Z,23.17
2022-11-05T18:02:51.716Z,18.60
2022-11-05T18:05:20.261Z,30.35
2022-11-05T18:07:48.366Z,23.13
2022-11-05T18:10:15.864Z,23.38
2022-11-05T18:12:43.493Z,23.80
2022-11-05T18:15:10.454Z,21.27
2022-11-05T18:17:37.429Z,21.90
2022-11-05T18:20:11.671Z,21.98
2022-11-05T18:22:40.117Z,27.85
2022-11-05T18:25:08.151Z,28.38
2022-11-05T18:27:35.416Z,27.85
2022-11-05T18:30:02.193Z,27.27
2022-11-05T18:32:28.844Z,27.05
2022-11-05T18:34:55.487Z,34.40
2022-11-05T18:37:22.393Z,33.85
2022-11-05T18:39:53.087Z,35.35
2022-11-05T18:42:21.129Z,35.97
2022-11-05T18:44:48.325Z,34.42
2022-11-05T18:47:15.170Z,36.40
2022-11-05T18:49:41.851Z,32.90
2022-11-05T18:52:08.663Z,27.13
2022-11-05T18:54:35.455Z,33.35
2022-11-05T18:57:02.365Z,32.15
2022-11-05T18:59:39.260Z,28.70
2022-11-05T19:02:08.650Z,33.45
2022-11-05T19:04:38.606Z,29.95
2022-11-05T19:07:07.362Z,29.25
2022-11-05T19:09:35.333Z,30.15
2022-11-05T19:12:03.271Z,28.50
2022-11-05T19:14:30.356Z,29.35
2022-11-05T19:16:58.349Z,28.63
2022-11-05T19:19:25.667Z,27.05
2022-11-05T19:21:52.414Z,30.02
2022-11-05T19:24:19.106Z,28.83
2022-11-05T19:26:46.825Z,24.98
2022-11-05T19:29:13.809Z,23.50
2022-11-05T19:31:40.482Z,18.10
2022-11-05T19:34:07.216Z,16.73
2022-11-05T19:36:34.259Z,18.10
2022-11-05T19:39:04.164Z,18.15
2022-11-05T19:41:31.043Z,17.48
2022-11-05T19:43:58.832Z,18.00
2022-11-05T19:46:25.766Z,18.70
2022-11-05T19:48:53.113Z,19.70
2022-11-05T19:51:22.754Z,23.05
2022-11-05T19:53:51.716Z,23.17
2022-11-05T19:56:21.808Z,22.98
2022-11-05T19:58:49.263Z,19.50
2022-11-05T20:01:17.311Z,18.67
2022-11-05T20:03:44.701Z,20.17
2022-11-05T20:06:15.342Z,20.85
2022-11-05T20:09:07.208Z,18.98
2022-11-05T20:11:29.518Z,22.83
2022-11-05T20:13:57.149Z,16.95
2022-11-05T20:16:30.036Z,23.38
2022-11-05T20:18:57.427Z,24.42
2022-11-05T20:21:24.104Z,23.60
2022-11-05T20:23:50.830Z,22.73
2022-11-05T20:26:17.466Z,23.15
2022-11-05T20:28:44.320Z,26.15
2022-11-05T20:31:13.775Z,41.72
2022-11-05T20:33:41.800Z,30.23
2022-11-05T20:36:13.107Z,23.67
2022-11-05T20:38:39.995Z,23.92
2022-11-05T20:41:11.741Z,22.75
2022-11-05T20:43:41.116Z,47.58
2022-11-05T20:46:09.913Z,35.05
2022-11-05T20:48:36.797Z,43.92
2022-11-05T20:51:09.035Z,35.97
2022-11-05T20:53:36.660Z,41.70
2022-11-05T20:56:07.783Z,38.97
2022-11-05T20:58:36.493Z,41.80
2022-11-05T21:01:04.876Z,35.58
2022-11-05T21:03:31.852Z,44.78
2022-11-05T21:06:00.002Z,41.20
2022-11-05T21:08:28.228Z,29.35
2022-11-05T21:10:55.867Z,19.13
2022-11-05T21:13:23.576Z,22.17
2022-11-05T21:15:52.700Z,19.08
2022-11-05T21:18:21.263Z,21.90
2022-11-05T21:20:48.117Z,20.10
2022-11-05T21:23:15.773Z,20.02
2022-11-05T21:25:44.070Z,19.60
2022-11-05T21:28:12.808Z,21.77
2022-11-05T21:30:45.056Z,19.73
2022-11-05T21:33:13.862Z,39.75
2022-11-05T21:35:41.753Z,18.40
2022-11-05T21:38:08.470Z,14.65
2022-11-05T21:40:35.196Z,15.38
2022-11-05T21:43:01.902Z,17.27
2022-11-05T21:45:28.600Z,13.57
2022-11-05T21:47:56.067Z,17.27
2022-11-05T21:50:43.644Z,21.65
2022-11-05T21:53:35.834Z,20.13
2022-11-05T21:56:26.170Z,20.65
2022-11-05T21:59:11.517Z,19.92
2022-11-05T22:01:38.312Z,22.60
2022-11-05T22:04:05.114Z,22.08
2022-11-05T22:06:34.808Z,20.77
2022-11-05T22:09:01.493Z,15.27
2022-11-05T22:11:28.525Z,11.75
2022-11-05T22:13:55.220Z,11.88
2022-11-05T22:16:21.866Z,10.80
2022-11-05T22:18:48.531Z,9.55
2022-11-05T22:21:17.175Z,9.65
2022-11-05T22:23:43.918Z,9.38
2022-11-05T22:26:10.569Z,9.70
2022-11-05T22:28:37.251Z,10.50
2022-11-05T22:31:04.062Z,10.82
2022-11-05T22:33:31.340Z,13.15
2022-11-05T22:35:58.000Z,11.55
2022-11-05T22:38:24.681Z,9.52
2022-11-05T22:40:51.331Z,12.95
2022-11-05T22:43:18.039Z,9.80
2022-11-05T22:45:45.590Z,10.98
2022-11-05T22:48:12.484Z,13.10
2022-11-05T22:50:39.789Z,15.10
2022-11-05T22:53:06.590Z,11.88
2022-11-05T22:55:33.282Z,13.30
2022-11-05T22:57:59.978Z,17.35
2022-11-05T23:00:35.843Z,16.67
2022-11-05T23:03:03.099Z,16.60
2022-11-05T23:05:30.068Z,15.80
2022-11-05T23:08:15.644Z,19.73
2022-11-05T23:11:01.092Z,17.55
2022-11-05T23:13:27.726Z,19.52
2022-11-05T23:16:12.991Z,21.85
2022-11-05T23:18:58.295Z,18.02
2022-11-05T23:21:43.784Z,17.52
2022-11-05T23:24:12.698Z,18.83
2022-11-05T23:26:51.938Z,18.08
2022-11-05T23:29:20.887Z,19.13
2022-11-05T23:32:06.191Z,17.75
2022-11-05T23:34:33.301Z,12.93
2022-11-05T23:37:18.585Z,13.13
2022-11-05T23:39:45.224Z,14.27
2022-11-05T23:42:30.512Z,15.88
2022-11-05T23:45:15.703Z,18.58
2022-11-05T23:48:01.574Z,26.23
2022-11-05T23:50:29.767Z,20.88
2022-11-05T23:52:56.791Z,17.70
2022-11-05T23:55:24.261Z,19.08
2022-11-05T23:57:51.511Z,18.00
